»·PEaware :: N9875 KLAX-KSAN

N9875 :: KLAX-KSAN

FLIGHT INFORMATION

Flight Status: Arrived
Operator: Privately registered:
United States
More flights under this callsign
Pilot: Joe C. (22377)
Aircraft: PILATUS PC-12 EAGLE
(PC12)
More flights by this aircraft type
Origin: KLAX Los Angeles Intl
United States
Destination: KSAN San Diego Intl-Lindbergh
United States
More flights between these airports :: More routes between these airports
Route: +
File this flight plan on PilotEdge
Remarks: CAT 11
Altitude:
(Current/Filed)
5,500ft
Speed:
(Current/Filed)
250kts
Departed: 18-Dec-18 09:30 AM
Arrived: 18-Dec-18 10:31 AM
Distance/Time
Traveled:
95nm/1:01
Distance/Time
To Go:
Arrived

Flight Plot

Page will automatically refresh every two minutes.


Map Options




Map Legend


Flown Route
Filed Route
Departure Airport
Arrival Airport
Navaid (VOR, NDB)
Fix

Horizontal Profiles

Position Reports

Time Latitude Longitude Heading Altitude Ground
Speed
18-Dec-18 09:12 33.933681 -118.399071 174 110ft 0kts
18-Dec-18 09:14 33.933681 -118.399071 174 110ft 0kts
18-Dec-18 09:14 33.933681 -118.399071 174 110ft 0kts
18-Dec-18 09:16 33.933681 -118.399071 174 110ft 0kts
18-Dec-18 09:16 33.933681 -118.399071 174 110ft 0kts
18-Dec-18 09:17 33.933681 -118.399071 174 110ft 0kts
18-Dec-18 09:18 33.933681 -118.399071 174 110ft 0kts
18-Dec-18 09:19 33.933681 -118.399071 174 110ft 0kts
18-Dec-18 09:20 33.933681 -118.399071 174 110ft 0kts
18-Dec-18 09:21 33.933681 -118.399071 174 110ft 0kts
18-Dec-18 09:22 33.933681 -118.399071 174 110ft 0kts
18-Dec-18 09:23 33.933817 -118.398482 67 109ft 11kts
18-Dec-18 09:24 33.935078 -118.393020 82 102ft 25kts
18-Dec-18 09:25 33.935960 -118.384393 83 98ft 25kts
18-Dec-18 09:26 33.936474 -118.382756 348 96ft 0kts
18-Dec-18 09:27 33.936474 -118.382756 348 96ft 0kts
18-Dec-18 09:28 33.936474 -118.382756 348 96ft 0kts
18-Dec-18 09:29 33.935300 -118.400978 261 474ft 126kts
18-Dec-18 09:30 33.932419 -118.452889 266 2025ft 177kts
18-Dec-18 09:31 33.910200 -118.498628 169 2754ft 213kts
18-Dec-18 09:32 33.856290 -118.467121 152 3483ft 232kts
18-Dec-18 09:33 33.797245 -118.429986 146 3480ft 244kts
18-Dec-18 09:34 33.766149 -118.393451 133 4257ft 222kts
18-Dec-18 09:35 33.723828 -118.342749 135 5207ft 228kts
18-Dec-18 09:36 33.676591 -118.286927 135 5216ft 245kts
18-Dec-18 09:37 33.632334 -118.234692 135 5215ft 214kts
18-Dec-18 09:38 33.588197 -118.182512 135 5218ft 238kts
18-Dec-18 09:39 33.539877 -118.125644 135 5216ft 246kts
18-Dec-18 09:40 33.490955 -118.068122 135 5216ft 247kts
18-Dec-18 09:41 33.441819 -118.010434 135 5216ft 247kts
18-Dec-18 09:42 33.392853 -117.953043 135 5112ft 248kts
18-Dec-18 09:43 33.343898 -117.895809 135 4311ft 245kts
18-Dec-18 09:44 33.295365 -117.839104 135 3511ft 244kts
18-Dec-18 09:45 33.249873 -117.786075 135 3195ft 206kts
18-Dec-18 09:46 33.209918 -117.739453 135 3225ft 200kts
18-Dec-18 09:47 33.169757 -117.692727 135 3225ft 203kts
18-Dec-18 09:48 33.123902 -117.670849 227 3227ft 203kts
18-Dec-18 09:49 33.138234 -117.727206 314 3225ft 204kts
18-Dec-18 09:50 33.181664 -117.731801 75 3227ft 203kts
18-Dec-18 09:51 33.152807 -117.676523 138 3221ft 204kts
18-Dec-18 09:52 33.127015 -117.708955 308 3230ft 203kts
18-Dec-18 09:53 33.170817 -117.747292 11 3226ft 203kts
18-Dec-18 09:54 33.168173 -117.697521 163 3223ft 204kts
18-Dec-18 09:55 33.153899 -117.741214 313 3229ft 203kts
18-Dec-18 09:56 33.199479 -117.764964 44 3227ft 203kts
18-Dec-18 09:57 33.178981 -117.714366 173 3223ft 204kts
18-Dec-18 09:58 33.169595 -117.762223 309 3227ft 204kts
18-Dec-18 09:59 33.191511 -117.818170 231 3237ft 203kts
18-Dec-18 10:00 33.143484 -117.853477 209 3225ft 204kts
18-Dec-18 10:01 33.117489 -117.820281 69 3232ft 204kts
18-Dec-18 10:02 33.122718 -117.753349 92 3225ft 204kts
18-Dec-18 10:03 33.117494 -117.686061 95 3225ft 204kts
18-Dec-18 10:04 33.113039 -117.618915 67 3227ft 204kts
18-Dec-18 10:05 33.156477 -117.630301 311 3226ft 204kts
18-Dec-18 10:06 33.193805 -117.681293 310 3225ft 204kts
18-Dec-18 10:07 33.235724 -117.721571 12 3226ft 204kts
18-Dec-18 10:08 33.233059 -117.673350 166 3229ft 203kts
18-Dec-18 10:09 33.176830 -117.666447 200 3220ft 204kts
18-Dec-18 10:10 33.160811 -117.727559 264 3225ft 204kts
18-Dec-18 10:11 33.155647 -117.795229 264 3225ft 204kts
18-Dec-18 10:12 33.138270 -117.854066 189 3237ft 203kts
18-Dec-18 10:13 33.112249 -117.803286 108 3225ft 204kts
18-Dec-18 10:14 33.087815 -117.742397 119 3225ft 204kts
18-Dec-18 10:15 33.092215 -117.679263 76 3222ft 204kts
18-Dec-18 10:16 33.100490 -117.612560 81 3225ft 204kts
18-Dec-18 10:17 33.108421 -117.545657 81 3224ft 201kts
18-Dec-18 10:18 33.115947 -117.482133 81 3224ft 189kts
18-Dec-18 10:19 33.113530 -117.422805 133 3229ft 185kts
18-Dec-18 10:20 33.076244 -117.379665 135 3225ft 190kts
18-Dec-18 10:21 33.038851 -117.336952 136 3225ft 189kts
18-Dec-18 10:22 33.000930 -117.293673 136 3225ft 188kts
18-Dec-18 10:23 32.957189 -117.264014 173 3225ft 188kts
18-Dec-18 10:24 32.905046 -117.258314 174 3225ft 188kts
18-Dec-18 10:25 32.854541 -117.248823 157 3227ft 188kts
18-Dec-18 10:26 32.805833 -117.224640 152 2522ft 193kts
18-Dec-18 10:27 32.761552 -117.205674 169 859ft 120kts
18-Dec-18 10:28 32.743554 -117.186480 102 627ft 89kts
18-Dec-18 10:29 32.732074 -117.170505 223 269ft 85kts
18-Dec-18 10:30 32.733848 -117.190964 281 17ft 24kts
18-Dec-18 10:31 32.733163 -117.191795 233 17ft 0kts
18-Dec-18 10:32 32.733163 -117.191795 233 17ft 0kts
18-Dec-18 10:33 32.733107 -117.191892 242 16ft 6kts
18-Dec-18 10:34 32.731623 -117.193488 70 17ft 0kts

Navigation Log

Ident Type
Flight plan parsing failed, navigation log unavailable